Time;durP1;ratioP1;P1;durP2;ratioP2;P2;SDS_P1;SDS_P2;PMS_P1;PMS_P2;Temp;Humidity;BMP_temperature;BMP_pressure;BME280_temperature;BME280_humidity;BME280_pressure;Samples;Min_cycle;Max_cycle;Signal;HPM_P1;HPM_P2
2024/02/29 00:00:55;;;;;;;;;18.25;18.00;;;;;;;;5088998;28;10758;-81
2024/02/29 00:03:25;;;;;;;;;20.50;17.25;;;;;;;;5102057;28;10952;-82
2024/02/29 00:05:55;;;;;;;;;17.25;17.25;;;;;;;;5090132;28;11060;-81
2024/02/29 00:08:23;;;;;;;;;12.50;12.50;;;;;;;;5090231;28;11007;-80
2024/02/29 00:10:50;;;;;;;;;14.00;11.50;;;;;;;;5090380;28;10717;-82
2024/02/29 00:13:19;;;;;;;;;18.75;17.50;;;;;;;;5090459;28;10685;-82
2024/02/29 00:15:46;;;;;;;;;19.00;17.25;;;;;;;;5077545;28;10808;-82
2024/02/29 00:18:13;;;;;;;;;18.25;13.00;;;;;;;;5091369;28;10879;-82
2024/02/29 00:20:43;;;;;;;;;14.50;14.50;;;;;;;;5092917;28;10625;-83
2024/02/29 00:23:10;;;;;;;;;18.50;17.25;;;;;;;;5097849;28;10679;-81
2024/02/29 00:25:39;;;;;;;;;19.00;17.50;;;;;;;;5094822;28;10702;-82
2024/02/29 00:28:07;;;;;;;;;13.50;13.50;;;;;;;;5093398;28;10710;-83
2024/02/29 00:30:35;;;;;;;;;17.25;15.75;;;;;;;;5092132;28;10811;-82
2024/02/29 00:33:04;;;;;;;;;14.75;14.75;;;;;;;;5083057;28;10736;-82
2024/02/29 00:35:32;;;;;;;;;16.50;16.00;;;;;;;;5091691;28;10548;-82
2024/02/29 00:38:10;;;;;;;;;13.50;13.50;;;;;;;;5090359;28;10700;-81
2024/02/29 00:40:39;;;;;;;;;17.00;14.75;;;;;;;;5082591;28;10647;-82
2024/02/29 00:43:08;;;;;;;;;16.00;14.25;;;;;;;;5088798;28;10696;-83
2024/02/29 00:45:36;;;;;;;;;12.00;11.50;;;;;;;;5079980;28;10843;-82
2024/02/29 00:48:04;;;;;;;;;15.00;11.75;;;;;;;;5088110;28;10643;-83
2024/02/29 00:50:33;;;;;;;;;15.75;15.50;;;;;;;;5088809;28;10544;-83
2024/02/29 00:53:02;;;;;;;;;10.00;10.00;;;;;;;;5088575;28;10939;-83
2024/02/29 00:55:31;;;;;;;;;10.50;10.25;;;;;;;;5087598;28;10453;-84
2024/02/29 00:57:58;;;;;;;;;10.50;10.50;;;;;;;;5076556;28;11162;-83
2024/02/29 01:00:25;;;;;;;;;11.25;11.25;;;;;;;;5087724;28;10729;-82
2024/02/29 01:02:54;;;;;;;;;15.00;12.00;;;;;;;;5089928;28;10506;-83
2024/02/29 01:05:24;;;;;;;;;11.50;9.75;;;;;;;;5090482;28;10549;-82
2024/02/29 01:07:52;;;;;;;;;12.75;12.75;;;;;;;;5100639;28;10550;-83
2024/02/29 01:10:19;;;;;;;;;12.75;11.50;;;;;;;;5094242;28;10588;-82
2024/02/29 01:12:46;;;;;;;;;11.50;10.00;;;;;;;;5089927;28;10570;-83
2024/02/29 01:15:14;;;;;;;;;11.00;11.00;;;;;;;;5087897;28;11367;-82
2024/02/29 01:17:42;;;;;;;;;10.75;10.75;;;;;;;;5088109;28;10342;-82
2024/02/29 01:20:11;;;;;;;;;10.00;9.50;;;;;;;;5087383;28;10498;-81
2024/02/29 01:22:38;;;;;;;;;10.50;9.50;;;;;;;;5088383;28;10405;-82
2024/02/29 01:25:07;;;;;;;;;12.00;12.00;;;;;;;;5087502;28;10539;-82
2024/02/29 01:27:34;;;;;;;;;8.50;6.00;;;;;;;;5088104;28;10458;-82
2024/02/29 01:30:03;;;;;;;;;12.00;12.00;;;;;;;;5087854;28;10205;-82
2024/02/29 01:32:30;;;;;;;;;9.00;9.00;;;;;;;;5087750;28;10375;-82
2024/02/29 01:34:59;;;;;;;;;10.00;10.00;;;;;;;;5087743;28;10169;-81
2024/02/29 01:37:27;;;;;;;;;9.50;6.75;;;;;;;;5087814;28;10225;-81
2024/02/29 01:39:55;;;;;;;;;8.00;8.00;;;;;;;;5087554;28;11062;-81
2024/02/29 01:42:25;;;;;;;;;10.50;9.00;;;;;;;;5087983;28;10374;-82
2024/02/29 01:44:54;;;;;;;;;6.00;6.00;;;;;;;;5070702;28;10155;-83
2024/02/29 01:47:21;;;;;;;;;6.00;6.00;;;;;;;;5088307;28;10267;-82
2024/02/29 01:49:50;;;;;;;;;10.75;10.75;;;;;;;;5088467;28;10474;-82
2024/02/29 01:52:20;;;;;;;;;11.00;9.50;;;;;;;;5087500;28;10306;-81
2024/02/29 01:54:51;;;;;;;;;13.50;10.75;;;;;;;;5088089;28;10412;-82
2024/02/29 01:57:19;;;;;;;;;7.75;7.75;;;;;;;;5078617;28;10243;-83
2024/02/29 01:59:47;;;;;;;;;11.00;11.00;;;;;;;;5088113;28;10432;-82
2024/02/29 02:02:14;;;;;;;;;9.00;9.00;;;;;;;;5087629;28;10283;-82
2024/02/29 02:04:42;;;;;;;;;12.00;10.75;;;;;;;;5087963;28;10241;-82
2024/02/29 02:07:11;;;;;;;;;10.25;10.00;;;;;;;;5088738;28;10347;-83
2024/02/29 02:09:41;;;;;;;;;13.00;9.25;;;;;;;;5089218;28;10563;-82
2024/02/29 02:12:11;;;;;;;;;10.75;9.25;;;;;;;;5090433;28;10236;-80
2024/02/29 02:14:38;;;;;;;;;11.75;9.75;;;;;;;;5090422;28;10227;-81
2024/02/29 02:17:06;;;;;;;;;9.75;8.00;;;;;;;;5090795;28;10326;-80
2024/02/29 02:19:35;;;;;;;;;12.00;12.00;;;;;;;;5090705;28;10302;-82
2024/02/29 02:22:07;;;;;;;;;9.50;9.00;;;;;;;;5091037;28;10480;-81
2024/02/29 02:24:36;;;;;;;;;12.25;11.50;;;;;;;;5071672;28;10227;-82
2024/02/29 02:27:04;;;;;;;;;11.00;11.00;;;;;;;;5087764;28;10235;-83
2024/02/29 02:29:31;;;;;;;;;9.00;9.00;;;;;;;;5078653;28;10349;-81
2024/02/29 02:32:00;;;;;;;;;9.75;9.75;;;;;;;;5090670;28;10208;-82
2024/02/29 02:34:29;;;;;;;;;10.75;9.00;;;;;;;;5087044;28;10268;-82
2024/02/29 02:36:56;;;;;;;;;10.50;10.50;;;;;;;;5087862;28;10391;-83
2024/02/29 02:39:25;;;;;;;;;9.25;9.25;;;;;;;;5088807;28;10319;-83
2024/02/29 02:41:52;;;;;;;;;10.00;10.00;;;;;;;;5091196;28;10361;-81
2024/02/29 02:44:19;;;;;;;;;10.00;10.00;;;;;;;;5090834;28;10428;-82
2024/02/29 02:46:47;;;;;;;;;8.00;8.00;;;;;;;;5089613;28;10431;-82
2024/02/29 02:49:15;;;;;;;;;8.25;8.25;;;;;;;;5091040;28;11175;-83
2024/02/29 02:51:43;;;;;;;;;9.75;8.00;;;;;;;;5091758;28;10325;-82
2024/02/29 02:54:10;;;;;;;;;10.75;10.75;;;;;;;;5092526;28;10233;-83
2024/02/29 02:56:39;;;;;;;;;14.75;11.00;;;;;;;;5091728;28;10311;-82
2024/02/29 02:59:06;;;;;;;;;5.25;4.00;;;;;;;;5093514;28;10465;-81
2024/02/29 03:01:33;;;;;;;;;10.75;9.00;;;;;;;;5091202;28;11275;-81
2024/02/29 03:04:00;;;;;;;;;9.50;9.50;;;;;;;;5090915;28;10471;-82
2024/02/29 03:06:28;;;;;;;;;10.00;9.00;;;;;;;;5089743;28;10407;-81
2024/02/29 03:08:55;;;;;;;;;9.00;9.00;;;;;;;;5090559;28;11124;-82
2024/02/29 03:11:25;;;;;;;;;9.50;6.50;;;;;;;;5093328;28;10442;-82
2024/02/29 03:13:54;;;;;;;;;10.75;9.00;;;;;;;;5092636;28;10261;-80
2024/02/29 03:16:24;;;;;;;;;10.25;10.25;;;;;;;;5090829;28;10821;-81
2024/02/29 03:18:55;;;;;;;;;14.00;10.50;;;;;;;;5092205;28;10277;-82
2024/02/29 03:21:25;;;;;;;;;10.75;10.75;;;;;;;;5092454;28;10249;-82
2024/02/29 03:23:54;;;;;;;;;10.50;9.25;;;;;;;;5093159;28;10284;-81
2024/02/29 03:26:23;;;;;;;;;4.00;4.00;;;;;;;;5090309;28;10075;-83
2024/02/29 03:28:51;;;;;;;;;6.25;6.25;;;;;;;;5091034;28;10280;-81
2024/02/29 03:31:20;;;;;;;;;15.75;9.25;;;;;;;;5090136;28;10078;-81
2024/02/29 03:33:47;;;;;;;;;10.00;10.00;;;;;;;;5090540;28;10373;-82
2024/02/29 03:36:14;;;;;;;;;10.25;8.50;;;;;;;;5089249;28;10303;-82
2024/02/29 03:38:41;;;;;;;;;9.25;9.25;;;;;;;;5090287;28;10456;-81
2024/02/29 03:41:08;;;;;;;;;9.50;7.50;;;;;;;;5089441;28;10209;-81
2024/02/29 03:43:36;;;;;;;;;9.00;9.00;;;;;;;;5090945;28;10342;-82
2024/02/29 03:46:03;;;;;;;;;10.75;9.00;;;;;;;;5092596;28;10459;-80
2024/02/29 03:48:32;;;;;;;;;13.00;11.00;;;;;;;;5093930;28;10337;-81
2024/02/29 03:50:59;;;;;;;;;15.00;11.50;;;;;;;;5089410;28;10362;-81
2024/02/29 03:53:27;;;;;;;;;12.00;10.50;;;;;;;;5091150;28;10339;-81
2024/02/29 03:55:55;;;;;;;;;10.25;10.25;;;;;;;;5090508;28;10355;-81
2024/02/29 03:58:24;;;;;;;;;11.00;9.00;;;;;;;;5091144;28;10404;-80
2024/02/29 04:00:52;;;;;;;;;10.00;9.50;;;;;;;;5091681;28;10304;-82
2024/02/29 04:03:20;;;;;;;;;11.50;11.25;;;;;;;;5093293;28;10247;-82
2024/02/29 04:05:48;;;;;;;;;11.75;11.25;;;;;;;;5091272;28;10353;-81
2024/02/29 04:08:17;;;;;;;;;7.00;7.00;;;;;;;;5105196;28;10327;-81
2024/02/29 04:10:48;;;;;;;;;11.00;10.00;;;;;;;;5093233;28;10459;-82
2024/02/29 04:13:15;;;;;;;;;10.75;10.75;;;;;;;;5092135;28;11108;-82
2024/02/29 04:15:43;;;;;;;;;13.50;11.00;;;;;;;;5089871;28;10167;-82
2024/02/29 04:18:10;;;;;;;;;12.75;11.00;;;;;;;;5089702;28;10390;-83
2024/02/29 04:20:37;;;;;;;;;9.50;9.50;;;;;;;;5089384;28;10404;-82
2024/02/29 04:23:06;;;;;;;;;11.00;11.00;;;;;;;;5088847;28;10374;-82
2024/02/29 04:25:33;;;;;;;;;13.75;12.00;;;;;;;;5089245;28;10448;-82
2024/02/29 04:28:00;;;;;;;;;16.00;14.75;;;;;;;;5089231;28;10456;-82
2024/02/29 04:30:28;;;;;;;;;14.75;13.00;;;;;;;;5088545;28;10481;-82
2024/02/29 04:32:55;;;;;;;;;13.00;13.00;;;;;;;;5088662;28;10433;-82
2024/02/29 04:35:23;;;;;;;;;13.00;13.00;;;;;;;;5089784;28;10634;-81
2024/02/29 04:37:50;;;;;;;;;14.25;12.00;;;;;;;;5089171;28;10336;-81
2024/02/29 04:40:19;;;;;;;;;14.00;14.00;;;;;;;;5089357;28;10379;-81
2024/02/29 04:42:46;;;;;;;;;14.00;13.25;;;;;;;;5089164;28;10411;-82
2024/02/29 04:45:13;;;;;;;;;13.00;13.00;;;;;;;;5101835;28;11297;-82
2024/02/29 04:47:41;;;;;;;;;11.00;11.00;;;;;;;;5093735;28;10331;-81
2024/02/29 04:50:09;;;;;;;;;12.00;9.25;;;;;;;;5091069;28;11284;-82
2024/02/29 04:52:36;;;;;;;;;14.00;14.00;;;;;;;;5088568;28;10520;-83
2024/02/29 04:55:03;;;;;;;;;17.50;15.75;;;;;;;;5088848;28;10489;-83
2024/02/29 04:57:32;;;;;;;;;10.25;10.25;;;;;;;;5088783;28;10537;-84
2024/02/29 04:59:59;;;;;;;;;10.75;9.50;;;;;;;;5088720;28;10560;-82
2024/02/29 05:02:26;;;;;;;;;15.50;14.25;;;;;;;;5082520;28;10572;-83
2024/02/29 05:04:54;;;;;;;;;11.50;11.50;;;;;;;;5082053;28;10550;-81
2024/02/29 05:07:22;;;;;;;;;16.00;15.00;;;;;;;;5088570;28;10553;-82
2024/02/29 05:09:49;;;;;;;;;14.00;14.00;;;;;;;;5089688;28;10565;-82
2024/02/29 05:12:16;;;;;;;;;16.50;15.00;;;;;;;;5100273;28;10760;-82
2024/02/29 05:14:45;;;;;;;;;12.50;12.50;;;;;;;;5090302;28;10968;-82
2024/02/29 05:17:12;;;;;;;;;18.00;14.25;;;;;;;;5088486;28;10551;-82
2024/02/29 05:19:39;;;;;;;;;16.75;15.75;;;;;;;;5087944;28;10504;-82
2024/02/29 05:22:06;;;;;;;;;15.75;13.50;;;;;;;;5087085;28;10429;-81
2024/02/29 05:24:33;;;;;;;;;16.50;16.50;;;;;;;;5100362;28;10240;-82
2024/02/29 05:27:01;;;;;;;;;15.50;15.50;;;;;;;;5087751;28;10526;-81
2024/02/29 05:29:28;;;;;;;;;12.00;10.25;;;;;;;;5087914;28;10584;-81
2024/02/29 05:31:57;;;;;;;;;16.00;16.00;;;;;;;;5087039;28;10445;-80
2024/02/29 05:34:24;;;;;;;;;13.50;13.25;;;;;;;;5087231;28;10412;-80
2024/02/29 05:36:51;;;;;;;;;18.50;17.00;;;;;;;;5088098;28;10676;-82
2024/02/29 05:39:19;;;;;;;;;19.50;18.25;;;;;;;;5087332;28;10624;-82
2024/02/29 05:41:46;;;;;;;;;15.00;14.50;;;;;;;;5087590;28;10702;-82
2024/02/29 05:44:13;;;;;;;;;21.25;19.75;;;;;;;;5087616;28;10620;-81
2024/02/29 05:46:41;;;;;;;;;22.75;18.25;;;;;;;;5091068;28;10500;-81
2024/02/29 05:49:09;;;;;;;;;18.75;16.50;;;;;;;;5086894;28;10573;-82
2024/02/29 05:51:37;;;;;;;;;16.75;16.75;;;;;;;;5083455;28;10578;-80
2024/02/29 05:54:06;;;;;;;;;20.50;19.50;;;;;;;;5092864;28;10717;-80
2024/02/29 05:56:36;;;;;;;;;22.00;20.25;;;;;;;;5094530;28;10772;-81
2024/02/29 05:59:03;;;;;;;;;24.75;21.25;;;;;;;;5098708;28;10648;-80
2024/02/29 06:01:31;;;;;;;;;20.75;19.25;;;;;;;;5094202;28;10699;-81
2024/02/29 06:03:58;;;;;;;;;19.50;19.50;;;;;;;;5091840;28;10732;-82
2024/02/29 06:06:28;;;;;;;;;25.75;22.25;;;;;;;;5086678;28;10737;-82
2024/02/29 06:08:58;;;;;;;;;17.00;17.00;;;;;;;;5087198;28;11499;-82
2024/02/29 06:11:25;;;;;;;;;17.75;17.75;;;;;;;;5088041;28;10830;-80
2024/02/29 06:13:56;;;;;;;;;21.50;21.50;;;;;;;;5089665;28;10634;-82
2024/02/29 06:16:27;;;;;;;;;23.75;21.75;;;;;;;;5091945;28;10816;-81
2024/02/29 06:18:57;;;;;;;;;17.75;17.75;;;;;;;;5091844;28;10466;-81
2024/02/29 06:21:31;;;;;;;;;22.50;18.50;;;;;;;;5102292;28;10441;-82
2024/02/29 06:23:58;;;;;;;;;18.50;18.50;;;;;;;;5090459;28;10397;-82
2024/02/29 06:26:28;;;;;;;;;15.25;13.50;;;;;;;;5090737;28;10352;-79
2024/02/29 06:28:55;;;;;;;;;18.50;15.25;;;;;;;;5091114;28;11226;-81
2024/02/29 06:31:25;;;;;;;;;14.00;12.75;;;;;;;;5072768;28;10265;-82
2024/02/29 06:33:52;;;;;;;;;14.75;14.25;;;;;;;;5093401;28;10303;-82
2024/02/29 06:36:20;;;;;;;;;11.50;11.50;;;;;;;;5093084;28;10395;-81
2024/02/29 06:38:49;;;;;;;;;13.75;12.75;;;;;;;;5093968;28;10446;-82
2024/02/29 06:41:17;;;;;;;;;12.50;12.50;;;;;;;;5090822;28;10435;-81
2024/02/29 06:43:44;;;;;;;;;12.75;12.00;;;;;;;;5091061;28;10444;-81
2024/02/29 06:46:11;;;;;;;;;9.25;8.50;;;;;;;;5089735;28;10526;-83
2024/02/29 06:48:39;;;;;;;;;13.75;11.75;;;;;;;;5090878;28;11053;-82
2024/02/29 06:51:06;;;;;;;;;12.50;12.50;;;;;;;;5090623;28;10480;-82
2024/02/29 06:53:33;;;;;;;;;9.75;7.25;;;;;;;;5091406;28;10329;-82
2024/02/29 06:56:03;;;;;;;;;11.75;11.25;;;;;;;;5090662;28;10427;-81
2024/02/29 06:58:32;;;;;;;;;13.75;12.50;;;;;;;;5089776;28;10331;-81
2024/02/29 07:01:06;;;;;;;;;13.25;11.50;;;;;;;;5072348;28;10339;-79
2024/02/29 07:03:33;;;;;;;;;12.25;11.50;;;;;;;;5090568;28;10364;-80
2024/02/29 07:06:00;;;;;;;;;12.25;11.50;;;;;;;;5085653;28;10405;-83
2024/02/29 07:08:30;;;;;;;;;12.50;12.50;;;;;;;;5102636;28;10535;-84
2024/02/29 07:11:04;;;;;;;;;13.50;13.50;;;;;;;;5092477;28;10468;-80
2024/02/29 07:13:31;;;;;;;;;16.00;15.00;;;;;;;;5090841;28;10607;-84
2024/02/29 07:15:59;;;;;;;;;14.50;14.50;;;;;;;;5091123;28;10878;-84
2024/02/29 07:18:26;;;;;;;;;15.25;15.25;;;;;;;;5089778;28;10682;-83
2024/02/29 07:20:54;;;;;;;;;20.25;15.75;;;;;;;;5092111;28;10621;-80
2024/02/29 07:23:21;;;;;;;;;13.75;13.75;;;;;;;;5091254;28;10670;-87
2024/02/29 07:25:48;;;;;;;;;9.75;9.75;;;;;;;;5090598;28;10827;-87
2024/02/29 07:28:19;;;;;;;;;17.25;16.00;;;;;;;;5091527;28;10529;-83
2024/02/29 07:30:49;;;;;;;;;14.50;14.50;;;;;;;;5091643;28;10700;-83
2024/02/29 07:33:19;;;;;;;;;16.75;14.75;;;;;;;;5090734;28;10627;-84
2024/02/29 07:35:47;;;;;;;;;15.00;15.00;;;;;;;;5092991;28;10768;-83
2024/02/29 07:38:14;;;;;;;;;18.00;16.50;;;;;;;;5094339;28;10593;-82
2024/02/29 07:40:41;;;;;;;;;10.25;8.75;;;;;;;;5096275;28;10724;-81
2024/02/29 07:43:11;;;;;;;;;12.00;12.00;;;;;;;;5083393;28;10450;-81
2024/02/29 07:45:40;;;;;;;;;12.00;12.00;;;;;;;;5094713;28;10480;-80
2024/02/29 07:48:09;;;;;;;;;11.00;11.00;;;;;;;;5096076;28;10510;-79
2024/02/29 07:50:37;;;;;;;;;15.25;11.75;;;;;;;;5095484;28;10651;-78
2024/02/29 07:53:08;;;;;;;;;12.00;12.00;;;;;;;;5094475;28;10508;-77
2024/02/29 07:55:38;;;;;;;;;11.00;11.00;;;;;;;;5089538;28;10448;-77
2024/02/29 07:58:06;;;;;;;;;11.75;11.75;;;;;;;;5089136;28;10470;-76
2024/02/29 08:00:37;;;;;;;;;12.00;12.00;;;;;;;;5089243;28;10430;-77
2024/02/29 08:03:06;;;;;;;;;13.25;13.25;;;;;;;;5090979;28;10511;-77
2024/02/29 08:05:35;;;;;;;;;11.50;11.50;;;;;;;;5087995;28;10547;-77
2024/02/29 08:08:02;;;;;;;;;11.00;9.00;;;;;;;;5087422;28;10531;-77
2024/02/29 08:10:29;;;;;;;;;15.25;13.50;;;;;;;;5088025;28;11341;-76
2024/02/29 08:12:56;;;;;;;;;12.50;12.50;;;;;;;;5088913;28;10564;-81
2024/02/29 08:15:24;;;;;;;;;17.75;16.00;;;;;;;;5087652;28;10403;-76
2024/02/29 08:17:51;;;;;;;;;11.25;11.25;;;;;;;;5088260;28;10575;-76
2024/02/29 08:20:20;;;;;;;;;14.50;14.50;;;;;;;;5088242;28;10379;-75
2024/02/29 08:22:53;;;;;;;;;11.75;11.50;;;;;;;;5088336;28;10424;-75
2024/02/29 08:25:21;;;;;;;;;18.00;14.00;;;;;;;;5090038;28;10317;-75
2024/02/29 08:27:49;;;;;;;;;12.75;12.75;;;;;;;;5088837;28;10505;-74
2024/02/29 08:30:16;;;;;;;;;13.00;12.25;;;;;;;;5088228;28;10464;-73
2024/02/29 08:32:44;;;;;;;;;15.75;15.75;;;;;;;;5088174;28;10607;-75
2024/02/29 08:35:11;;;;;;;;;12.25;12.25;;;;;;;;5088070;28;10558;-76
2024/02/29 08:37:43;;;;;;;;;12.75;12.75;;;;;;;;5087724;28;10490;-76
2024/02/29 08:40:14;;;;;;;;;13.75;13.75;;;;;;;;5088676;28;10405;-74
2024/02/29 08:42:44;;;;;;;;;16.75;14.75;;;;;;;;5086041;28;10481;-78
2024/02/29 08:45:11;;;;;;;;;17.25;17.25;;;;;;;;5088522;28;10573;-76
2024/02/29 08:47:39;;;;;;;;;14.00;14.00;;;;;;;;5087863;28;10468;-75
2024/02/29 08:50:07;;;;;;;;;12.00;12.00;;;;;;;;5088008;28;10481;-75
2024/02/29 08:52:34;;;;;;;;;14.00;12.25;;;;;;;;5087897;28;10330;-77
2024/02/29 08:55:06;;;;;;;;;11.50;11.50;;;;;;;;5088490;28;10316;-75
2024/02/29 08:57:34;;;;;;;;;13.00;12.25;;;;;;;;5086897;28;10488;-75
2024/02/29 09:00:01;;;;;;;;;18.50;17.00;;;;;;;;5088448;28;10491;-78
2024/02/29 09:02:28;;;;;;;;;12.75;12.75;;;;;;;;5088947;28;10281;-77
2024/02/29 09:04:56;;;;;;;;;16.75;13.25;;;;;;;;5087612;28;10420;-77
2024/02/29 09:07:23;;;;;;;;;16.50;16.50;;;;;;;;5087502;28;10289;-77
2024/02/29 09:09:51;;;;;;;;;13.25;11.25;;;;;;;;5088041;28;10492;-75
2024/02/29 09:12:19;;;;;;;;;11.75;11.75;;;;;;;;5075767;28;10468;-74
2024/02/29 09:14:47;;;;;;;;;14.25;14.25;;;;;;;;5087567;28;10527;-76
2024/02/29 09:17:14;;;;;;;;;12.25;12.25;;;;;;;;5087816;28;10412;-77
2024/02/29 09:19:42;;;;;;;;;14.75;14.75;;;;;;;;5088200;28;10642;-77
2024/02/29 09:22:09;;;;;;;;;17.25;16.75;;;;;;;;5088710;28;10398;-78
2024/02/29 09:24:36;;;;;;;;;19.00;15.50;;;;;;;;5089426;28;10572;-74
2024/02/29 09:27:04;;;;;;;;;16.50;16.50;;;;;;;;5090691;28;10575;-76
2024/02/29 09:29:33;;;;;;;;;18.75;18.25;;;;;;;;5088169;28;10487;-77
2024/02/29 09:32:00;;;;;;;;;21.50;18.25;;;;;;;;5091633;28;10621;-74
2024/02/29 09:34:28;;;;;;;;;19.25;19.00;;;;;;;;5090913;28;10846;-73
2024/02/29 09:36:55;;;;;;;;;21.50;17.75;;;;;;;;5091643;28;10615;-76
2024/02/29 09:39:26;;;;;;;;;17.25;12.75;;;;;;;;5102292;28;10567;-77
2024/02/29 09:41:53;;;;;;;;;12.50;12.50;;;;;;;;5091924;28;10642;-73
2024/02/29 09:44:21;;;;;;;;;15.50;13.00;;;;;;;;5087146;28;10645;-76
2024/02/29 09:46:50;;;;;;;;;13.75;13.75;;;;;;;;5086712;28;10502;-74
2024/02/29 09:49:17;;;;;;;;;12.75;12.75;;;;;;;;5088291;28;10427;-74
2024/02/29 09:51:47;;;;;;;;;13.75;13.75;;;;;;;;5092776;28;11230;-75
2024/02/29 09:54:17;;;;;;;;;9.50;8.00;;;;;;;;5092082;28;10476;-75
2024/02/29 09:56:45;;;;;;;;;10.25;10.25;;;;;;;;5092269;28;10159;-75
2024/02/29 09:59:17;;;;;;;;;9.50;8.75;;;;;;;;5091368;28;10437;-77
2024/02/29 10:01:45;;;;;;;;;13.00;11.00;;;;;;;;5090740;28;10345;-73
2024/02/29 10:04:16;;;;;;;;;9.25;9.25;;;;;;;;5079799;28;10468;-80
2024/02/29 10:06:43;;;;;;;;;9.25;9.25;;;;;;;;5089914;28;10448;-74
2024/02/29 10:09:10;;;;;;;;;10.00;8.75;;;;;;;;5091126;28;10225;-73
2024/02/29 10:11:41;;;;;;;;;8.50;6.50;;;;;;;;5091747;28;10284;-77
2024/02/29 10:14:19;;;;;;;;;10.50;9.25;;;;;;;;5093231;28;10269;-74
2024/02/29 10:16:51;;;;;;;;;11.00;11.00;;;;;;;;5091897;28;10200;-75
2024/02/29 10:19:20;;;;;;;;;14.75;14.75;;;;;;;;5090921;28;10482;-78
2024/02/29 10:21:47;;;;;;;;;40.25;36.75;;;;;;;;5090953;28;10601;-74
2024/02/29 10:24:14;;;;;;;;;17.00;14.75;;;;;;;;5090708;28;10962;-74
2024/02/29 10:26:42;;;;;;;;;82.50;70.75;;;;;;;;5090455;28;10392;-75
2024/02/29 10:29:10;;;;;;;;;39.50;34.25;;;;;;;;5090603;28;11559;-75
2024/02/29 10:31:38;;;;;;;;;8.25;7.50;;;;;;;;5090552;28;10993;-76
2024/02/29 10:34:11;;;;;;;;;11.50;11.50;;;;;;;;5090860;28;10241;-77
2024/02/29 10:36:41;;;;;;;;;10.75;10.50;;;;;;;;5079049;28;10173;-74
2024/02/29 10:39:08;;;;;;;;;15.75;15.75;;;;;;;;5090036;28;10239;-80
2024/02/29 10:41:39;;;;;;;;;8.25;8.25;;;;;;;;5091228;28;10320;-78
2024/02/29 10:44:09;;;;;;;;;76.50;57.50;;;;;;;;5090201;28;10063;-74
2024/02/29 10:46:38;;;;;;;;;13.00;11.25;;;;;;;;5090787;28;11620;-76
2024/02/29 10:49:11;;;;;;;;;3.00;3.00;;;;;;;;5090205;28;10179;-79
2024/02/29 10:51:44;;;;;;;;;5.75;4.50;;;;;;;;5090803;28;9924;-75
2024/02/29 10:54:18;;;;;;;;;17.00;14.50;;;;;;;;5090643;28;9757;-77
2024/02/29 10:56:47;;;;;;;;;6.25;6.25;;;;;;;;5091131;28;10417;-74
2024/02/29 10:59:17;;;;;;;;;46.00;40.00;;;;;;;;5078429;28;10068;-77
2024/02/29 11:01:46;;;;;;;;;12.25;10.25;;;;;;;;5089772;28;12009;-75
2024/02/29 11:04:14;;;;;;;;;4.25;4.25;;;;;;;;5092100;28;10176;-76
2024/02/29 11:06:45;;;;;;;;;5.75;4.75;;;;;;;;5091854;28;10016;-77
2024/02/29 11:09:14;;;;;;;;;4.50;4.50;;;;;;;;5091179;28;10008;-75
2024/02/29 11:11:42;;;;;;;;;14.50;11.00;;;;;;;;5090887;28;9985;-81
2024/02/29 11:14:12;;;;;;;;;4.50;3.00;;;;;;;;5091728;28;10084;-74
2024/02/29 11:16:41;;;;;;;;;7.25;5.75;;;;;;;;5093767;28;9789;-78
2024/02/29 11:19:11;;;;;;;;;5.50;4.00;;;;;;;;5081534;28;9925;-78
2024/02/29 11:21:38;;;;;;;;;3.75;3.75;;;;;;;;5096546;28;9853;-80
2024/02/29 11:24:08;;;;;;;;;2.75;2.75;;;;;;;;5096742;28;9761;-76
2024/02/29 11:26:36;;;;;;;;;4.00;4.00;;;;;;;;5093282;28;9625;-80
2024/02/29 11:29:12;;;;;;;;;6.50;6.25;;;;;;;;5096532;28;9835;-80
2024/02/29 11:31:44;;;;;;;;;4.50;3.00;;;;;;;;5089812;28;9953;-81
2024/02/29 11:34:11;;;;;;;;;3.00;3.00;;;;;;;;5091392;28;9640;-74
2024/02/29 11:36:39;;;;;;;;;5.00;5.00;;;;;;;;5090062;28;10473;-73
2024/02/29 11:39:09;;;;;;;;;4.00;4.00;;;;;;;;5091888;28;9765;-73
2024/02/29 11:41:37;;;;;;;;;3.75;3.00;;;;;;;;5091171;28;9675;-73
2024/02/29 11:44:06;;;;;;;;;4.00;4.00;;;;;;;;5090350;28;9626;-76
2024/02/29 11:46:33;;;;;;;;;4.50;3.75;;;;;;;;5089810;28;9773;-74
2024/02/29 11:49:00;;;;;;;;;5.75;5.75;;;;;;;;5089763;28;10033;-75
2024/02/29 11:51:28;;;;;;;;;6.25;6.25;;;;;;;;5089429;28;9855;-74
2024/02/29 11:53:55;;;;;;;;;4.25;4.25;;;;;;;;5081877;28;10607;-74
2024/02/29 11:56:24;;;;;;;;;9.00;7.00;;;;;;;;5089668;28;9701;-76
2024/02/29 11:58:53;;;;;;;;;6.00;6.00;;;;;;;;5089929;28;9953;-74
2024/02/29 12:01:23;;;;;;;;;5.25;5.25;;;;;;;;5084426;28;9697;-77
2024/02/29 12:03:50;;;;;;;;;6.50;6.50;;;;;;;;5092070;28;9678;-74
2024/02/29 12:06:19;;;;;;;;;6.75;6.25;;;;;;;;5091430;28;9932;-75
2024/02/29 12:08:47;;;;;;;;;5.25;5.25;;;;;;;;5090723;28;9681;-80
2024/02/29 12:11:14;;;;;;;;;14.50;14.50;;;;;;;;5089660;28;9783;-77
2024/02/29 12:13:43;;;;;;;;;8.25;7.25;;;;;;;;5089111;28;9966;-74
2024/02/29 12:16:12;;;;;;;;;5.50;5.50;;;;;;;;5089040;28;9850;-74
2024/02/29 12:18:41;;;;;;;;;5.75;5.50;;;;;;;;5088023;28;9596;-76
2024/02/29 12:21:12;;;;;;;;;6.50;6.50;;;;;;;;5089060;28;9629;-75
2024/02/29 12:23:40;;;;;;;;;7.75;7.25;;;;;;;;5077018;28;9896;-75
2024/02/29 12:26:11;;;;;;;;;8.50;8.50;;;;;;;;5087125;28;9765;-73
2024/02/29 12:28:39;;;;;;;;;9.25;9.25;;;;;;;;5088803;28;9693;-77
2024/02/29 12:31:09;;;;;;;;;16.50;16.50;;;;;;;;5087679;28;9801;-76
2024/02/29 12:33:37;;;;;;;;;11.50;11.50;;;;;;;;5089289;28;10217;-76
2024/02/29 12:36:06;;;;;;;;;8.00;6.00;;;;;;;;5088654;28;9856;-81
2024/02/29 12:38:33;;;;;;;;;9.50;6.00;;;;;;;;5089065;28;9562;-77
2024/02/29 12:41:05;;;;;;;;;7.50;7.50;;;;;;;;5088702;28;9815;-78
2024/02/29 12:43:32;;;;;;;;;7.50;7.50;;;;;;;;5089951;28;9816;-84
2024/02/29 12:46:03;;;;;;;;;7.00;7.00;;;;;;;;5089413;28;9612;-83
2024/02/29 12:48:34;;;;;;;;;5.00;5.00;;;;;;;;5090188;28;9787;-87
2024/02/29 12:51:02;;;;;;;;;8.00;8.00;;;;;;;;5088632;28;9764;-80
2024/02/29 12:53:31;;;;;;;;;9.50;7.00;;;;;;;;5088742;28;9820;-79
2024/02/29 12:56:01;;;;;;;;;6.75;6.75;;;;;;;;5089433;28;9653;-81
2024/02/29 12:58:30;;;;;;;;;12.75;12.75;;;;;;;;5088043;28;9682;-78
2024/02/29 13:01:03;;;;;;;;;16.25;13.25;;;;;;;;5089055;28;9841;-77
2024/02/29 13:03:32;;;;;;;;;11.25;10.75;;;;;;;;5090384;28;10720;-79
2024/02/29 13:05:59;;;;;;;;;7.00;7.00;;;;;;;;5088735;28;9786;-78
2024/02/29 13:08:26;;;;;;;;;8.75;6.50;;;;;;;;5089753;28;9711;-78
2024/02/29 13:10:55;;;;;;;;;9.00;9.00;;;;;;;;5090826;28;9859;-79
2024/02/29 13:13:22;;;;;;;;;14.50;13.50;;;;;;;;5090555;28;9762;-77
2024/02/29 13:15:49;;;;;;;;;12.00;7.75;;;;;;;;5090751;28;9927;-78
2024/02/29 13:18:17;;;;;;;;;9.50;7.00;;;;;;;;5091188;28;9853;-80
2024/02/29 13:20:46;;;;;;;;;16.75;14.25;;;;;;;;5089918;28;9792;-78
2024/02/29 13:23:14;;;;;;;;;10.00;10.00;;;;;;;;5089981;28;9918;-76
2024/02/29 13:25:41;;;;;;;;;11.25;11.25;;;;;;;;5091303;28;9784;-74
2024/02/29 13:28:08;;;;;;;;;10.50;10.50;;;;;;;;5088082;28;9865;-74
2024/02/29 13:30:36;;;;;;;;;9.00;9.00;;;;;;;;5088058;28;9695;-75
2024/02/29 13:33:03;;;;;;;;;17.00;13.25;;;;;;;;5088258;28;10343;-76
2024/02/29 13:35:30;;;;;;;;;9.25;9.25;;;;;;;;5087958;28;10711;-75
2024/02/29 13:37:59;;;;;;;;;11.50;11.50;;;;;;;;5095048;28;10589;-74
2024/02/29 13:40:26;;;;;;;;;12.00;12.00;;;;;;;;5087688;28;9838;-76
2024/02/29 13:42:53;;;;;;;;;10.25;9.00;;;;;;;;5082374;28;9705;-74
2024/02/29 13:45:21;;;;;;;;;9.75;9.75;;;;;;;;5080440;28;9614;-75
2024/02/29 13:47:49;;;;;;;;;11.00;11.00;;;;;;;;5087548;28;9719;-74
2024/02/29 13:50:18;;;;;;;;;6.50;6.50;;;;;;;;5089128;28;9721;-75
2024/02/29 13:52:45;;;;;;;;;9.25;7.00;;;;;;;;5089834;28;9631;-75
2024/02/29 13:55:14;;;;;;;;;8.75;7.75;;;;;;;;5087916;28;9653;-74
2024/02/29 13:57:42;;;;;;;;;7.50;6.00;;;;;;;;5088165;28;9764;-74
2024/02/29 14:00:10;;;;;;;;;8.25;8.25;;;;;;;;5087818;28;9536;-75
2024/02/29 14:02:37;;;;;;;;;10.25;7.50;;;;;;;;5088534;28;9594;-74
2024/02/29 14:05:08;;;;;;;;;8.50;8.50;;;;;;;;5086776;28;9615;-75
2024/02/29 14:07:38;;;;;;;;;6.25;6.25;;;;;;;;5088318;28;9585;-75
2024/02/29 14:10:06;;;;;;;;;7.25;7.25;;;;;;;;5088046;28;9829;-76
2024/02/29 14:12:37;;;;;;;;;8.25;8.25;;;;;;;;5087716;28;9712;-76
2024/02/29 14:15:08;;;;;;;;;10.00;10.00;;;;;;;;5088055;28;10464;-76
2024/02/29 14:17:38;;;;;;;;;10.00;7.50;;;;;;;;5087951;28;9713;-75
2024/02/29 14:20:08;;;;;;;;;7.00;7.00;;;;;;;;5087357;28;9690;-77
2024/02/29 14:22:37;;;;;;;;;11.75;8.75;;;;;;;;5088292;28;9618;-75
2024/02/29 14:25:08;;;;;;;;;7.75;7.75;;;;;;;;5086190;28;9636;-75
2024/02/29 14:27:37;;;;;;;;;10.00;7.00;;;;;;;;5087259;28;9497;-75
2024/02/29 14:30:09;;;;;;;;;7.50;7.50;;;;;;;;5098995;28;9651;-77
2024/02/29 14:32:36;;;;;;;;;7.50;7.25;;;;;;;;5087189;28;9607;-76
2024/02/29 14:35:06;;;;;;;;;10.00;10.00;;;;;;;;5089219;28;9749;-75